Time;durP1;ratioP1;P1;durP2;ratioP2;P2;SDS_P1;SDS_P2;PMS_P1;PMS_P2;Temp;Humidity;BMP_temperature;BMP_pressure;BME280_temperature;BME280_humidity;BME280_pressure;Samples;Min_cycle;Max_cycle;Signal;HPM_P1;HPM_P2
2024/03/26 00:00:49;;;;;;;4.38;1.70;;;;;;;;;;5074252;28;20031;-72
2024/03/26 00:03:15;;;;;;;4.47;2.00;;;;;;;;;;5054465;28;20027;-73
2024/03/26 00:05:41;;;;;;;4.78;2.38;;;;;;;;;;5054996;28;20031;-72
2024/03/26 00:08:07;;;;;;;6.38;2.30;;;;;;;;;;5055269;28;20024;-73
2024/03/26 00:10:33;;;;;;;7.90;1.73;;;;;;;;;;5074047;28;20459;-73
2024/03/26 00:12:59;;;;;;;9.25;3.13;;;;;;;;;;5059078;28;20085;-73
2024/03/26 00:15:25;;;;;;;4.05;1.90;;;;;;;;;;5058829;28;20078;-74
2024/03/26 00:17:51;;;;;;;6.78;2.45;;;;;;;;;;5076417;28;20029;-74
2024/03/26 00:20:17;;;;;;;8.13;1.67;;;;;;;;;;5055966;28;20074;-74
2024/03/26 00:22:43;;;;;;;6.88;1.80;;;;;;;;;;5073847;28;20024;-73
2024/03/26 00:25:09;;;;;;;5.03;2.13;;;;;;;;;;5075911;28;20035;-73
2024/03/26 00:27:35;;;;;;;7.10;1.85;;;;;;;;;;5081256;28;20024;-73
2024/03/26 00:30:01;;;;;;;3.65;1.40;;;;;;;;;;5064510;28;20024;-73
2024/03/26 00:32:27;;;;;;;4.63;1.88;;;;;;;;;;5063529;28;20017;-73
2024/03/26 00:34:53;;;;;;;2.92;1.60;;;;;;;;;;5082666;28;20036;-72
2024/03/26 00:37:19;;;;;;;4.03;1.92;;;;;;;;;;5082298;28;20032;-72
2024/03/26 00:39:45;;;;;;;7.65;1.73;;;;;;;;;;5082017;28;20035;-73
2024/03/26 00:42:11;;;;;;;2.65;1.60;;;;;;;;;;5061934;28;20028;-72
2024/03/26 00:44:37;;;;;;;5.05;1.88;;;;;;;;;;5079548;28;20028;-73
2024/03/26 00:47:03;;;;;;;5.03;2.00;;;;;;;;;;5079624;28;20088;-73
2024/03/26 00:49:29;;;;;;;2.42;1.48;;;;;;;;;;5079659;28;20372;-74
2024/03/26 00:51:55;;;;;;;3.72;1.67;;;;;;;;;;5061486;28;20475;-73
2024/03/26 00:54:21;;;;;;;4.30;2.20;;;;;;;;;;5079350;28;20039;-72
2024/03/26 00:56:47;;;;;;;4.90;1.73;;;;;;;;;;5079912;28;20020;-73
2024/03/26 00:59:13;;;;;;;2.88;1.27;;;;;;;;;;5079044;28;20020;-73
2024/03/26 01:01:39;;;;;;;4.00;2.45;;;;;;;;;;5079119;28;20032;-73
2024/03/26 01:04:05;;;;;;;3.80;1.95;;;;;;;;;;5063000;28;20451;-73
2024/03/26 01:06:31;;;;;;;4.85;1.52;;;;;;;;;;5083305;28;20024;-72
2024/03/26 01:08:57;;;;;;;3.15;1.60;;;;;;;;;;5079521;28;20024;-74
2024/03/26 01:11:23;;;;;;;4.40;1.88;;;;;;;;;;5078274;28;20028;-74
2024/03/26 01:13:52;;;;;;;3.35;1.90;;;;;;;;;;5061283;28;20025;-74
2024/03/26 01:16:18;;;;;;;6.10;2.15;;;;;;;;;;5078683;28;20033;-74
2024/03/26 01:18:44;;;;;;;5.50;1.80;;;;;;;;;;5078491;28;20028;-73
2024/03/26 01:21:10;;;;;;;4.22;1.67;;;;;;;;;;5059767;28;20090;-73
2024/03/26 01:23:36;;;;;;;5.43;2.00;;;;;;;;;;5078471;28;20017;-73
2024/03/26 01:26:02;;;;;;;3.85;2.03;;;;;;;;;;5078603;28;20023;-73
2024/03/26 01:28:28;;;;;;;6.47;2.08;;;;;;;;;;5078574;28;20379;-72
2024/03/26 01:30:54;;;;;;;5.40;2.17;;;;;;;;;;5078134;28;20027;-74
2024/03/26 01:33:20;;;;;;;4.50;1.83;;;;;;;;;;5059880;28;20035;-72
2024/03/26 01:35:51;;;;;;;3.65;2.10;;;;;;;;;;5078278;28;20024;-72
2024/03/26 01:38:17;;;;;;;4.75;1.80;;;;;;;;;;5057002;28;20028;-73
2024/03/26 01:40:43;;;;;;;6.82;2.22;;;;;;;;;;5056900;28;20046;-73
2024/03/26 01:43:09;;;;;;;5.93;3.70;;;;;;;;;;5056649;28;20021;-74
2024/03/26 01:45:35;;;;;;;6.35;2.30;;;;;;;;;;5077089;28;20056;-74
2024/03/26 01:48:01;;;;;;;4.03;1.92;;;;;;;;;;5076974;28;20032;-73
2024/03/26 01:50:27;;;;;;;4.53;1.83;;;;;;;;;;5076977;28;20090;-74
2024/03/26 01:52:54;;;;;;;2.05;1.60;;;;;;;;;;5077592;28;20021;-73
2024/03/26 01:55:20;;;;;;;5.20;2.47;;;;;;;;;;5077541;28;20029;-73
2024/03/26 01:57:46;;;;;;;7.72;1.90;;;;;;;;;;5075292;28;20499;-73
2024/03/26 02:00:14;;;;;;;4.88;1.83;;;;;;;;;;5057062;28;20081;-74
2024/03/26 02:02:40;;;;;;;5.75;2.80;;;;;;;;;;5056551;28;20038;-74
2024/03/26 02:05:07;;;;;;;5.78;2.40;;;;;;;;;;5056951;28;20426;-74
2024/03/26 02:07:33;;;;;;;5.57;1.95;;;;;;;;;;5074840;28;20036;-73
2024/03/26 02:09:59;;;;;;;5.97;1.98;;;;;;;;;;5075211;28;20048;-73
2024/03/26 02:12:25;;;;;;;4.40;2.13;;;;;;;;;;5055839;28;20020;-73
2024/03/26 02:14:51;;;;;;;3.25;2.03;;;;;;;;;;5056640;28;20025;-73
2024/03/26 02:17:17;;;;;;;3.75;2.30;;;;;;;;;;5074397;28;20024;-73
2024/03/26 02:19:43;;;;;;;5.57;2.00;;;;;;;;;;5056341;28;20024;-73
2024/03/26 02:22:09;;;;;;;4.80;2.38;;;;;;;;;;5073416;28;20024;-72
2024/03/26 02:24:37;;;;;;;6.03;2.10;;;;;;;;;;5074080;28;20024;-75
2024/03/26 02:27:03;;;;;;;5.22;2.35;;;;;;;;;;5056212;28;20056;-73
2024/03/26 02:29:29;;;;;;;5.25;2.35;;;;;;;;;;5074933;28;20032;-74
2024/03/26 02:31:55;;;;;;;2.63;2.00;;;;;;;;;;5074143;28;20025;-74
2024/03/26 02:34:21;;;;;;;3.60;1.83;;;;;;;;;;5057996;28;20035;-73
2024/03/26 02:36:47;;;;;;;3.63;2.08;;;;;;;;;;5078323;28;20029;-74
2024/03/26 02:39:13;;;;;;;3.50;2.17;;;;;;;;;;5078899;28;20142;-73
2024/03/26 02:41:39;;;;;;;4.35;2.58;;;;;;;;;;5078105;28;20021;-73
2024/03/26 02:44:05;;;;;;;4.70;2.50;;;;;;;;;;5080790;28;20028;-72
2024/03/26 02:46:31;;;;;;;5.05;2.58;;;;;;;;;;5078286;28;20023;-74
2024/03/26 02:48:58;;;;;;;3.42;2.22;;;;;;;;;;5056959;28;20032;-72
2024/03/26 02:51:25;;;;;;;6.03;2.22;;;;;;;;;;5073669;28;20043;-73
2024/03/26 02:53:51;;;;;;;1.65;1.40;;;;;;;;;;5055928;28;20028;-73
2024/03/26 02:56:17;;;;;;;5.55;1.98;;;;;;;;;;5055808;28;20150;-73
2024/03/26 02:58:43;;;;;;;4.63;2.50;;;;;;;;;;5055618;28;20426;-74
2024/03/26 03:01:10;;;;;;;8.85;2.58;;;;;;;;;;5054895;28;20467;-74
2024/03/26 03:03:38;;;;;;;7.60;3.15;;;;;;;;;;5055123;28;20075;-74
2024/03/26 03:06:10;;;;;;;3.95;2.20;;;;;;;;;;5073671;28;20023;-73
2024/03/26 03:08:36;;;;;;;4.97;2.38;;;;;;;;;;5055487;28;20025;-73
2024/03/26 03:11:02;;;;;;;3.83;2.40;;;;;;;;;;5073277;28;20020;-75
2024/03/26 03:13:28;;;;;;;8.15;2.95;;;;;;;;;;5073312;28;20029;-73
2024/03/26 03:15:54;;;;;;;4.05;2.10;;;;;;;;;;5060873;28;20017;-72
2024/03/26 03:18:20;;;;;;;4.32;2.13;;;;;;;;;;5056051;28;20024;-73
2024/03/26 03:20:46;;;;;;;2.78;1.85;;;;;;;;;;5054930;28;20025;-73
2024/03/26 03:23:13;;;;;;;2.80;1.65;;;;;;;;;;5072613;28;20482;-73
2024/03/26 03:25:39;;;;;;;3.97;2.30;;;;;;;;;;5072900;28;20020;-73
2024/03/26 03:28:06;;;;;;;3.35;2.28;;;;;;;;;;5073056;28;20104;-73
2024/03/26 03:30:32;;;;;;;6.00;2.40;;;;;;;;;;5054884;28;20013;-73
2024/03/26 03:32:58;;;;;;;2.28;2.08;;;;;;;;;;5054359;28;20020;-73
2024/03/26 03:35:24;;;;;;;8.00;2.60;;;;;;;;;;5054667;28;20047;-73
2024/03/26 03:37:51;;;;;;;3.72;2.40;;;;;;;;;;5072880;28;20475;-74
2024/03/26 03:40:17;;;;;;;6.05;2.05;;;;;;;;;;5055303;28;20101;-73
2024/03/26 03:42:43;;;;;;;4.97;2.25;;;;;;;;;;5055162;28;20063;-74
2024/03/26 03:45:10;;;;;;;3.13;2.58;;;;;;;;;;5073267;28;20107;-73
2024/03/26 03:47:36;;;;;;;5.70;2.28;;;;;;;;;;5055179;28;20020;-73
2024/03/26 03:50:02;;;;;;;4.97;2.60;;;;;;;;;;5074031;28;20021;-73
2024/03/26 03:52:28;;;;;;;3.10;2.13;;;;;;;;;;5055040;28;20051;-74
2024/03/26 03:54:54;;;;;;;8.15;2.97;;;;;;;;;;5073470;28;20047;-73
2024/03/26 03:57:20;;;;;;;6.03;2.85;;;;;;;;;;5073291;28;20029;-73
2024/03/26 03:59:46;;;;;;;5.40;2.85;;;;;;;;;;5072882;28;20043;-74
2024/03/26 04:02:12;;;;;;;5.07;2.25;;;;;;;;;;5054433;28;20475;-73
2024/03/26 04:04:38;;;;;;;7.95;3.55;;;;;;;;;;5054762;28;20032;-73
2024/03/26 04:07:04;;;;;;;5.13;2.25;;;;;;;;;;5055443;28;20444;-72
2024/03/26 04:09:30;;;;;;;4.10;2.00;;;;;;;;;;5055468;28;20505;-73
2024/03/26 04:11:56;;;;;;;4.50;2.10;;;;;;;;;;5055565;28;20131;-74
2024/03/26 04:14:22;;;;;;;6.85;2.65;;;;;;;;;;5056436;28;20036;-75
2024/03/26 04:16:48;;;;;;;4.57;2.15;;;;;;;;;;5055869;28;20479;-75
2024/03/26 04:19:14;;;;;;;4.45;2.50;;;;;;;;;;5055633;28;20054;-75
2024/03/26 04:21:40;;;;;;;2.95;2.00;;;;;;;;;;5054634;28;20048;-73
2024/03/26 04:24:07;;;;;;;5.63;2.03;;;;;;;;;;5055750;28;20387;-73
2024/03/26 04:26:34;;;;;;;5.95;2.28;;;;;;;;;;5073673;28;20475;-73
2024/03/26 04:29:00;;;;;;;3.50;2.30;;;;;;;;;;5055954;28;20288;-73
2024/03/26 04:31:26;;;;;;;3.25;2.53;;;;;;;;;;5072344;28;20027;-73
2024/03/26 04:33:52;;;;;;;7.53;2.97;;;;;;;;;;5054862;28;20024;-74
2024/03/26 04:36:18;;;;;;;4.22;2.22;;;;;;;;;;5073272;28;20020;-73
2024/03/26 04:38:44;;;;;;;5.93;3.35;;;;;;;;;;5054766;28;20043;-74
2024/03/26 04:41:10;;;;;;;4.45;2.67;;;;;;;;;;5072194;28;20021;-74
2024/03/26 04:43:36;;;;;;;9.25;3.75;;;;;;;;;;5057308;28;20086;-73
2024/03/26 04:46:02;;;;;;;4.43;2.45;;;;;;;;;;5059482;28;20020;-73
2024/03/26 04:48:28;;;;;;;11.02;3.55;;;;;;;;;;5056683;28;20021;-72
2024/03/26 04:50:55;;;;;;;7.25;2.83;;;;;;;;;;5055330;28;20379;-74
2024/03/26 04:53:21;;;;;;;5.45;2.20;;;;;;;;;;5054461;28;20033;-73
2024/03/26 04:55:49;;;;;;;5.40;2.92;;;;;;;;;;5055181;28;20433;-74
2024/03/26 04:58:15;;;;;;;7.32;2.83;;;;;;;;;;5054985;28;20070;-74
2024/03/26 05:00:41;;;;;;;5.70;2.28;;;;;;;;;;5072643;28;20036;-75
2024/03/26 05:03:07;;;;;;;7.90;2.13;;;;;;;;;;5072333;28;20115;-72
2024/03/26 05:05:33;;;;;;;6.43;2.88;;;;;;;;;;5073023;28;20100;-74
2024/03/26 05:07:59;;;;;;;5.88;2.47;;;;;;;;;;5055238;28;20482;-74
2024/03/26 05:10:25;;;;;;;6.18;2.58;;;;;;;;;;5058935;28;20021;-72
2024/03/26 05:12:51;;;;;;;3.40;2.50;;;;;;;;;;5060313;28;20025;-73
2024/03/26 05:15:17;;;;;;;4.63;2.65;;;;;;;;;;5063095;28;20425;-73
2024/03/26 05:17:43;;;;;;;5.40;2.50;;;;;;;;;;5061941;28;20032;-73
2024/03/26 05:20:09;;;;;;;5.25;2.95;;;;;;;;;;5062074;28;20119;-73
2024/03/26 05:22:36;;;;;;;5.30;2.35;;;;;;;;;;5062506;28;20115;-72
2024/03/26 05:25:02;;;;;;;4.53;2.65;;;;;;;;;;5060587;28;20025;-72
2024/03/26 05:27:28;;;;;;;4.95;2.90;;;;;;;;;;5076800;28;20021;-73
2024/03/26 05:29:54;;;;;;;8.73;3.25;;;;;;;;;;5076181;28;20430;-73
2024/03/26 05:32:21;;;;;;;10.90;3.08;;;;;;;;;;5075692;28;20020;-74
2024/03/26 05:34:47;;;;;;;7.28;3.13;;;;;;;;;;5058006;28;20386;-73
2024/03/26 05:37:14;;;;;;;6.90;2.50;;;;;;;;;;5058602;28;20498;-73
2024/03/26 05:39:40;;;;;;;5.25;2.50;;;;;;;;;;5076130;28;20220;-74
2024/03/26 05:42:06;;;;;;;6.07;2.95;;;;;;;;;;5058398;28;20070;-74
2024/03/26 05:44:32;;;;;;;6.72;3.25;;;;;;;;;;5057937;28;20400;-73
2024/03/26 05:46:58;;;;;;;2.63;2.38;;;;;;;;;;5076046;28;20429;-75
2024/03/26 05:49:24;;;;;;;4.50;3.05;;;;;;;;;;5058230;28;20047;-74
2024/03/26 05:51:51;;;;;;;6.47;2.80;;;;;;;;;;5075897;28;20013;-74
2024/03/26 05:54:17;;;;;;;6.40;2.55;;;;;;;;;;5058025;28;20554;-74
2024/03/26 05:56:43;;;;;;;8.15;3.25;;;;;;;;;;5058340;28;20467;-73
2024/03/26 05:59:11;;;;;;;7.00;2.83;;;;;;;;;;5058295;28;20052;-72
2024/03/26 06:01:37;;;;;;;6.80;3.00;;;;;;;;;;5056786;28;20092;-74
2024/03/26 06:04:03;;;;;;;9.98;3.80;;;;;;;;;;5075184;28;20386;-74
2024/03/26 06:06:29;;;;;;;6.13;3.63;;;;;;;;;;5076517;28;20463;-74
2024/03/26 06:08:55;;;;;;;7.65;3.40;;;;;;;;;;5057765;28;20016;-74
2024/03/26 06:11:21;;;;;;;5.13;3.72;;;;;;;;;;5075800;28;20021;-73
2024/03/26 06:13:47;;;;;;;9.48;3.38;;;;;;;;;;5057999;28;20051;-73
2024/03/26 06:16:13;;;;;;;8.00;3.78;;;;;;;;;;5058237;28;20058;-74
2024/03/26 06:18:39;;;;;;;10.82;4.35;;;;;;;;;;5075884;28;20025;-73
2024/03/26 06:21:05;;;;;;;8.65;3.47;;;;;;;;;;5075177;28;20028;-73
2024/03/26 06:23:32;;;;;;;5.97;2.78;;;;;;;;;;5057025;28;20025;-74
2024/03/26 06:25:58;;;;;;;5.20;3.22;;;;;;;;;;5057985;28;20021;-74
2024/03/26 06:28:24;;;;;;;5.50;2.35;;;;;;;;;;5075589;28;20383;-73
2024/03/26 06:30:50;;;;;;;6.72;3.20;;;;;;;;;;5077173;28;20051;-72
2024/03/26 06:33:17;;;;;;;8.73;2.80;;;;;;;;;;5054173;28;20028;-73
2024/03/26 06:35:43;;;;;;;10.77;3.70;;;;;;;;;;5084007;28;20027;-73
2024/03/26 06:38:09;;;;;;;12.35;2.50;;;;;;;;;;5076116;28;20021;-74
2024/03/26 06:40:35;;;;;;;5.38;2.53;;;;;;;;;;5078243;28;20029;-74
2024/03/26 06:43:01;;;;;;;3.80;2.60;;;;;;;;;;5061615;28;20069;-74
2024/03/26 06:45:27;;;;;;;5.13;2.67;;;;;;;;;;5080652;28;20360;-74
2024/03/26 06:47:53;;;;;;;7.72;3.65;;;;;;;;;;5062662;28;20017;-73
2024/03/26 06:50:19;;;;;;;6.35;2.60;;;;;;;;;;5081867;28;20017;-75
2024/03/26 06:52:46;;;;;;;5.10;2.35;;;;;;;;;;5065684;28;20490;-75
2024/03/26 06:55:13;;;;;;;3.42;2.63;;;;;;;;;;5080376;28;20127;-73
2024/03/26 06:57:39;;;;;;;7.50;2.78;;;;;;;;;;5057964;28;20025;-73
2024/03/26 07:00:06;;;;;;;5.35;3.10;;;;;;;;;;5075462;28;20047;-74
2024/03/26 07:02:32;;;;;;;9.93;3.60;;;;;;;;;;5057612;28;20020;-75
2024/03/26 07:04:58;;;;;;;7.22;3.00;;;;;;;;;;5075373;28;20421;-74
2024/03/26 07:07:24;;;;;;;7.65;3.45;;;;;;;;;;5075343;28;20074;-76
2024/03/26 07:09:50;;;;;;;8.45;2.95;;;;;;;;;;5075171;28;20024;-75
2024/03/26 07:12:17;;;;;;;9.63;4.18;;;;;;;;;;5057128;28;20383;-74
2024/03/26 07:14:43;;;;;;;10.80;3.05;;;;;;;;;;5057007;28;20020;-75
2024/03/26 12:05:08;;;;;;;5.05;2.33;;;;;;;;;;4991829;28;20045;-72
2024/03/26 12:07:35;;;;;;;3.58;2.20;;;;;;;;;;4974601;28;20034;-72
2024/03/26 12:10:02;;;;;;;10.45;2.53;;;;;;;;;;4992105;28;20548;-71
2024/03/26 12:12:29;;;;;;;10.60;2.47;;;;;;;;;;4973834;28;20049;-71
2024/03/26 12:14:55;;;;;;;4.82;2.30;;;;;;;;;;4975431;28;20112;-71
2024/03/26 12:17:22;;;;;;;3.03;1.80;;;;;;;;;;4993338;28;20049;-71
2024/03/26 12:19:48;;;;;;;5.22;2.40;;;;;;;;;;4978217;28;20038;-71
2024/03/26 12:22:19;;;;;;;3.53;2.50;;;;;;;;;;4993407;28;20027;-71
2024/03/26 12:24:48;;;;;;;3.22;1.70;;;;;;;;;;4994025;28;20030;-72
2024/03/26 12:27:14;;;;;;;3.08;1.85;;;;;;;;;;4993829;28;20023;-72
2024/03/26 12:29:41;;;;;;;3.05;1.90;;;;;;;;;;4977885;28;20022;-70
2024/03/26 12:32:07;;;;;;;2.20;1.67;;;;;;;;;;4987621;28;20022;-72
2024/03/26 12:34:33;;;;;;;7.82;2.40;;;;;;;;;;4997579;28;20062;-72
2024/03/26 12:36:59;;;;;;;4.05;2.47;;;;;;;;;;4975215;28;20034;-72
2024/03/26 12:39:26;;;;;;;3.85;2.10;;;;;;;;;;4992892;28;20027;-71
2024/03/26 12:41:53;;;;;;;7.68;2.13;;;;;;;;;;4991119;28;20038;-71
2024/03/26 12:44:19;;;;;;;5.65;2.17;;;;;;;;;;4988986;28;20030;-71
2024/03/26 12:46:46;;;;;;;3.83;2.05;;;;;;;;;;4984756;28;20021;-72
2024/03/26 12:49:13;;;;;;;5.95;2.33;;;;;;;;;;4991496;28;20026;-72
2024/03/26 12:51:39;;;;;;;2.63;1.90;;;;;;;;;;4991669;28;20022;-72
2024/03/26 12:54:10;;;;;;;9.07;2.08;;;;;;;;;;4992310;28;20085;-72
2024/03/26 12:56:37;;;;;;;4.63;2.33;;;;;;;;;;4992122;28;20095;-71
2024/03/26 12:59:04;;;;;;;6.75;2.33;;;;;;;;;;4993001;28;20022;-73
2024/03/26 13:01:31;;;;;;;2.70;1.30;;;;;;;;;;4992828;28;20030;-71
2024/03/26 13:03:57;;;;;;;4.28;1.92;;;;;;;;;;4992739;28;20031;-71
2024/03/26 13:06:23;;;;;;;5.32;2.17;;;;;;;;;;4993146;28;20117;-72
2024/03/26 13:08:49;;;;;;;4.38;1.90;;;;;;;;;;4992615;28;20034;-72
2024/03/26 13:11:16;;;;;;;6.28;1.77;;;;;;;;;;4991742;28;20027;-72
2024/03/26 13:13:44;;;;;;;5.25;2.05;;;;;;;;;;4993481;28;20106;-72
2024/03/26 13:16:11;;;;;;;3.22;1.50;;;;;;;;;;4991756;28;20037;-72
2024/03/26 13:18:38;;;;;;;3.22;1.50;;;;;;;;;;4974755;28;20124;-73
2024/03/26 13:21:04;;;;;;;2.40;1.27;;;;;;;;;;4973200;28;20039;-71
2024/03/26 13:23:30;;;;;;;2.65;1.38;;;;;;;;;;4992094;28;20441;-72
2024/03/26 13:25:58;;;;;;;6.15;1.75;;;;;;;;;;4993093;28;20050;-72
2024/03/26 13:28:25;;;;;;;2.17;1.42;;;;;;;;;;4974627;28;20065;-72
2024/03/26 13:30:52;;;;;;;6.18;1.50;;;;;;;;;;4992385;28;20424;-74
2024/03/26 13:33:22;;;;;;;6.30;2.30;;;;;;;;;;4975132;28;20018;-73
2024/03/26 13:35:48;;;;;;;2.90;1.45;;;;;;;;;;4978734;28;20025;-73
2024/03/26 13:38:14;;;;;;;3.88;1.70;;;;;;;;;;4996275;28;20099;-73
2024/03/26 13:40:40;;;;;;;3.92;1.40;;;;;;;;;;4996276;28;20465;-74
2024/03/26 13:43:06;;;;;;;5.38;1.90;;;;;;;;;;4978314;28;20037;-72
2024/03/26 13:45:50;;;;;;;2.85;1.73;;;;;;;;;;4996750;28;20053;-74
2024/03/26 13:48:17;;;;;;;8.80;1.70;;;;;;;;;;4978675;28;20030;-74
2024/03/26 13:50:44;;;;;;;3.63;1.42;;;;;;;;;;4978244;28;20019;-73
2024/03/26 13:53:11;;;;;;;7.25;1.80;;;;;;;;;;4977943;28;20476;-73
2024/03/26 13:55:38;;;;;;;5.90;1.77;;;;;;;;;;4996652;28;20030;-72
2024/03/26 13:58:04;;;;;;;5.22;2.00;;;;;;;;;;4996574;28;20392;-73
2024/03/26 14:00:30;;;;;;;4.15;1.63;;;;;;;;;;4979179;28;20027;-74
2024/03/26 14:02:56;;;;;;;5.43;1.63;;;;;;;;;;4994172;28;20073;-71
2024/03/26 14:05:22;;;;;;;3.80;1.60;;;;;;;;;;4993794;28;20053;-73
2024/03/26 14:07:48;;;;;;;4.38;1.45;;;;;;;;;;4991991;28;20435;-73
2024/03/26 14:10:15;;;;;;;2.78;1.70;;;;;;;;;;4997943;28;20041;-75
2024/03/26 14:12:42;;;;;;;3.83;1.48;;;;;;;;;;4979884;28;20046;-75
2024/03/26 14:15:09;;;;;;;4.20;1.42;;;;;;;;;;4978802;28;20018;-72
2024/03/26 14:17:35;;;;;;;6.95;2.38;;;;;;;;;;4995157;28;20054;-73
2024/03/26 14:20:01;;;;;;;3.60;1.23;;;;;;;;;;4994210;28;20042;-72
2024/03/26 14:22:27;;;;;;;10.00;2.90;;;;;;;;;;4969086;28;20034;-73
2024/03/26 14:24:53;;;;;;;5.65;1.85;;;;;;;;;;4994293;28;20453;-73
2024/03/26 14:27:22;;;;;;;4.70;1.38;;;;;;;;;;4976477;28;20449;-73
2024/03/26 14:29:48;;;;;;;6.78;1.48;;;;;;;;;;4994747;28;20089;-74
2024/03/26 14:32:15;;;;;;;2.95;1.30;;;;;;;;;;4977460;28;20333;-74
2024/03/26 14:34:41;;;;;;;5.32;2.00;;;;;;;;;;4994875;28;20449;-75
2024/03/26 14:37:07;;;;;;;3.75;1.30;;;;;;;;;;4994828;28;20026;-73
2024/03/26 14:39:33;;;;;;;1.75;1.17;;;;;;;;;;4994313;28;20026;-74
2024/03/26 14:41:59;;;;;;;7.28;1.80;;;;;;;;;;4976673;28;20392;-74
2024/03/26 14:44:25;;;;;;;5.10;1.50;;;;;;;;;;4975653;28;20390;-74
2024/03/26 14:46:51;;;;;;;3.97;1.33;;;;;;;;;;4976954;28;20102;-73
2024/03/26 14:49:17;;;;;;;3.20;1.45;;;;;;;;;;4994288;28;20030;-73
2024/03/26 14:51:43;;;;;;;1.92;1.33;;;;;;;;;;4975815;28;20354;-74
2024/03/26 14:54:09;;;;;;;2.88;1.30;;;;;;;;;;4975842;28;20081;-73
2024/03/26 14:56:35;;;;;;;7.75;1.95;;;;;;;;;;4976277;28;20041;-74
2024/03/26 14:59:01;;;;;;;3.70;1.63;;;;;;;;;;4976826;28;20018;-73
2024/03/26 15:01:28;;;;;;;4.10;1.42;;;;;;;;;;4976073;28;20030;-74
2024/03/26 15:03:55;;;;;;;11.68;2.00;;;;;;;;;;4993831;28;20061;-73
2024/03/26 15:06:21;;;;;;;8.70;2.00;;;;;;;;;;4993832;28;20018;-72
2024/03/26 15:08:47;;;;;;;2.88;1.80;;;;;;;;;;4975736;28;20034;-73
2024/03/26 15:11:14;;;;;;;9.88;2.20;;;;;;;;;;4992955;28;20041;-74
2024/03/26 15:13:41;;;;;;;12.57;1.77;;;;;;;;;;4993445;28;20445;-74
2024/03/26 15:16:07;;;;;;;2.95;1.55;;;;;;;;;;4975313;28;20095;-73
2024/03/26 15:18:33;;;;;;;4.57;1.33;;;;;;;;;;4975659;28;20102;-72
2024/03/26 15:20:59;;;;;;;1.77;1.42;;;;;;;;;;4992495;28;20109;-73
2024/03/26 15:23:26;;;;;;;4.30;1.52;;;;;;;;;;4975637;28;20057;-73
2024/03/26 15:25:52;;;;;;;18.77;3.05;;;;;;;;;;4992632;28;20053;-73
2024/03/26 15:33:47;;;;;;;2.30;1.40;;;;;;;;;;4992662;28;20049;-73
2024/03/26 15:36:15;;;;;;;4.93;1.45;;;;;;;;;;4974952;28;20022;-72
2024/03/26 15:38:41;;;;;;;2.65;1.67;;;;;;;;;;4992312;28;20173;-74
2024/03/26 15:41:07;;;;;;;4.35;1.20;;;;;;;;;;4974229;28;20390;-73
2024/03/26 15:43:33;;;;;;;2.53;1.50;;;;;;;;;;4992558;28;20019;-73
2024/03/26 15:45:59;;;;;;;3.90;1.33;;;;;;;;;;4974597;28;20025;-72
2024/03/26 15:48:25;;;;;;;6.00;1.25;;;;;;;;;;4992119;28;20449;-72
2024/03/26 15:50:51;;;;;;;5.68;1.60;;;;;;;;;;4974735;28;20094;-73
2024/03/26 15:53:17;;;;;;;2.13;1.50;;;;;;;;;;4992871;28;20469;-72
2024/03/26 15:55:43;;;;;;;3.22;1.40;;;;;;;;;;4992332;28;20073;-72
2024/03/26 15:58:09;;;;;;;5.43;1.23;;;;;;;;;;4992540;28;20081;-73
2024/03/26 16:00:35;;;;;;;3.28;1.42;;;;;;;;;;4992922;28;20026;-73
2024/03/26 16:03:01;;;;;;;3.50;1.35;;;;;;;;;;4991600;28;20026;-72
2024/03/26 16:05:27;;;;;;;4.85;2.10;;;;;;;;;;4974514;28;20126;-72
2024/03/26 16:07:53;;;;;;;3.35;1.75;;;;;;;;;;4991935;28;20022;-72
2024/03/26 16:10:19;;;;;;;3.65;1.48;;;;;;;;;;4992297;28;20022;-73
2024/03/26 16:12:46;;;;;;;3.45;1.45;;;;;;;;;;4974687;28;20022;-72
2024/03/26 16:15:12;;;;;;;4.22;1.88;;;;;;;;;;4974355;28;20033;-73
2024/03/26 16:17:38;;;;;;;8.25;1.80;;;;;;;;;;4992198;28;20065;-72
2024/03/26 16:20:04;;;;;;;10.65;1.48;;;;;;;;;;4974683;28;20489;-73
2024/03/26 16:22:31;;;;;;;6.10;1.52;;;;;;;;;;4992168;28;20031;-73
2024/03/26 16:24:57;;;;;;;7.25;2.15;;;;;;;;;;4992244;28;20022;-73
2024/03/26 16:27:23;;;;;;;8.50;2.15;;;;;;;;;;4975176;28;20030;-73
2024/03/26 16:29:49;;;;;;;2.72;1.60;;;;;;;;;;4974377;28;20030;-73
2024/03/26 16:32:15;;;;;;;2.38;1.60;;;;;;;;;;4991446;28;20015;-73
2024/03/26 16:34:41;;;;;;;2.83;1.63;;;;;;;;;;4974196;28;20392;-73
2024/03/26 16:37:07;;;;;;;9.63;2.53;;;;;;;;;;4991019;28;20041;-72
2024/03/26 16:39:34;;;;;;;3.67;1.60;;;;;;;;;;4991429;28;20026;-73
2024/03/26 16:42:00;;;;;;;14.02;2.63;;;;;;;;;;4992090;28;20033;-72
2024/03/26 16:44:26;;;;;;;4.03;1.52;;;;;;;;;;5009135;23;20073;-74
2024/03/26 16:46:52;;;;;;;2.80;1.60;;;;;;;;;;5013000;28;20407;-75
2024/03/26 16:49:18;;;;;;;3.00;1.52;;;;;;;;;;5015401;28;20041;-74
2024/03/26 16:51:44;;;;;;;11.07;2.20;;;;;;;;;;5013702;28;20349;-74
2024/03/26 16:54:10;;;;;;;8.73;1.80;;;;;;;;;;5013664;28;20030;-74
2024/03/26 16:56:36;;;;;;;4.07;1.30;;;;;;;;;;5010157;28;20021;-74
2024/03/26 16:59:04;;;;;;;4.55;1.92;;;;;;;;;;5013276;28;20146;-75
2024/03/26 17:01:30;;;;;;;7.30;1.60;;;;;;;;;;4999912;28;20033;-74
2024/03/26 17:03:56;;;;;;;12.93;3.00;;;;;;;;;;4993101;28;20026;-74
2024/03/26 17:06:22;;;;;;;12.98;1.92;;;;;;;;;;4992540;28;20097;-74
2024/03/26 17:08:48;;;;;;;5.15;1.98;;;;;;;;;;4996230;28;20026;-75
2024/03/26 17:11:14;;;;;;;10.77;2.67;;;;;;;;;;4998318;28;20023;-74
2024/03/26 17:13:40;;;;;;;8.40;2.00;;;;;;;;;;4999859;28;20023;-74
2024/03/26 17:16:07;;;;;;;4.88;2.15;;;;;;;;;;4995775;28;20050;-74
2024/03/26 17:18:33;;;;;;;4.80;2.55;;;;;;;;;;4996379;28;20050;-73
2024/03/26 17:20:59;;;;;;;10.57;2.50;;;;;;;;;;4996017;28;20033;-75
2024/03/26 17:23:25;;;;;;;4.97;2.53;;;;;;;;;;4995278;28;20166;-74
2024/03/26 17:25:52;;;;;;;8.40;2.63;;;;;;;;;;4995542;28;20061;-73
2024/03/26 17:28:18;;;;;;;6.63;2.25;;;;;;;;;;4995839;28;20031;-75
2024/03/26 17:30:44;;;;;;;6.57;2.83;;;;;;;;;;4996371;28;20084;-74
2024/03/26 17:33:10;;;;;;;3.92;1.95;;;;;;;;;;4997537;28;20045;-74
2024/03/26 17:35:38;;;;;;;2.38;1.98;;;;;;;;;;4997984;28;20034;-75
2024/03/26 17:38:04;;;;;;;4.57;1.98;;;;;;;;;;4996602;28;20484;-76
2024/03/26 17:40:30;;;;;;;7.25;2.10;;;;;;;;;;4998132;28;20026;-73
2024/03/26 17:42:56;;;;;;;6.28;2.42;;;;;;;;;;4999713;28;20026;-73
2024/03/26 17:45:22;;;;;;;8.70;2.13;;;;;;;;;;4999234;28;20104;-74
2024/03/26 17:47:48;;;;;;;7.43;2.72;;;;;;;;;;5001926;28;20092;-74
2024/03/26 17:50:15;;;;;;;4.03;2.38;;;;;;;;;;4997831;28;20030;-73
2024/03/26 17:52:42;;;;;;;9.90;2.55;;;;;;;;;;4996806;28;20022;-75
2024/03/26 17:55:08;;;;;;;5.03;2.40;;;;;;;;;;4998141;28;20445;-74
2024/03/26 17:57:34;;;;;;;20.80;3.90;;;;;;;;;;4996222;28;20041;-75
2024/03/26 18:00:00;;;;;;;16.13;3.45;;;;;;;;;;4994439;28;20049;-75
2024/03/26 18:02:26;;;;;;;4.88;3.00;;;;;;;;;;4995073;28;20104;-75
2024/03/26 18:04:52;;;;;;;4.70;2.35;;;;;;;;;;4995528;28;20022;-76
2024/03/26 18:07:18;;;;;;;10.30;3.40;;;;;;;;;;4996241;28;20019;-75
2024/03/26 18:09:45;;;;;;;8.27;3.83;;;;;;;;;;4995173;28;20026;-75
2024/03/26 18:12:11;;;;;;;8.80;3.67;;;;;;;;;;4996349;28;20468;-74
2024/03/26 18:14:37;;;;;;;9.70;3.72;;;;;;;;;;4995247;28;20408;-74
2024/03/26 18:17:04;;;;;;;8.43;3.15;;;;;;;;;;4998514;28;20022;-74
2024/03/26 18:19:30;;;;;;;9.27;3.20;;;;;;;;;;4996125;28;20065;-75
2024/03/26 18:21:56;;;;;;;7.03;3.35;;;;;;;;;;4996988;28;20030;-73
2024/03/26 18:24:22;;;;;;;7.68;3.38;;;;;;;;;;4997112;28;20026;-72
2024/03/26 18:26:48;;;;;;;10.80;3.53;;;;;;;;;;4996382;28;20062;-74
2024/03/26 18:29:15;;;;;;;5.70;3.20;;;;;;;;;;4996083;28;20029;-74
2024/03/26 18:31:41;;;;;;;6.03;3.15;;;;;;;;;;4995087;28;20310;-74
2024/03/26 18:34:07;;;;;;;12.85;4.47;;;;;;;;;;4995198;28;20096;-72
2024/03/26 18:36:33;;;;;;;8.18;3.28;;;;;;;;;;4996117;28;20035;-72
2024/03/26 18:38:59;;;;;;;7.25;3.15;;;;;;;;;;4994712;28;20045;-73
2024/03/26 18:41:25;;;;;;;3.40;2.78;;;;;;;;;;4995543;28;20030;-72
2024/03/26 18:43:51;;;;;;;10.82;3.95;;;;;;;;;;5004697;28;20104;-74
2024/03/26 18:46:24;;;;;;;8.32;3.55;;;;;;;;;;5015651;28;20479;-72
2024/03/26 18:48:50;;;;;;;6.82;3.00;;;;;;;;;;5016455;28;20026;-72
2024/03/26 18:51:16;;;;;;;9.32;3.55;;;;;;;;;;5015366;28;20037;-74
2024/03/26 18:53:43;;;;;;;5.80;2.42;;;;;;;;;;5016130;28;20100;-72
2024/03/26 18:56:13;;;;;;;11.68;4.07;;;;;;;;;;5015079;28;20044;-74
2024/03/26 18:58:40;;;;;;;7.53;3.17;;;;;;;;;;5015383;28;20026;-72
2024/03/26 19:01:16;;;;;;;5.47;3.15;;;;;;;;;;5013330;28;20018;-74
2024/03/26 19:03:43;;;;;;;6.68;3.15;;;;;;;;;;5013842;28;20021;-73
2024/03/26 19:06:09;;;;;;;9.35;3.75;;;;;;;;;;5016643;28;20034;-75
2024/03/26 19:08:36;;;;;;;6.45;3.22;;;;;;;;;;5016907;28;20029;-73
2024/03/26 19:11:03;;;;;;;8.05;4.15;;;;;;;;;;5016165;28;20029;-73
2024/03/26 19:13:29;;;;;;;8.07;4.78;;;;;;;;;;5018215;28;20033;-73
2024/03/26 19:15:55;;;;;;;9.43;5.90;;;;;;;;;;5017837;28;20084;-72
2024/03/26 19:18:22;;;;;;;10.23;5.90;;;;;;;;;;5014204;28;20389;-72
2024/03/26 19:20:49;;;;;;;13.52;5.47;;;;;;;;;;5016531;28;20174;-73
2024/03/26 19:23:15;;;;;;;10.55;5.43;;;;;;;;;;5016294;28;20029;-74
2024/03/26 19:25:41;;;;;;;6.60;4.13;;;;;;;;;;5015344;28;20030;-72
2024/03/26 19:28:08;;;;;;;13.95;4.25;;;;;;;;;;5014441;28;20033;-73
2024/03/26 19:30:38;;;;;;;8.60;4.88;;;;;;;;;;5014237;28;20033;-73